createdAt,value
2018-12-31T00:01:41.989Z,65.30
2018-12-31T00:04:11.210Z,53.10
2018-12-31T00:06:40.447Z,59.87
2018-12-31T00:09:09.676Z,54.47
2018-12-31T00:11:38.868Z,55.30
2018-12-31T00:14:08.121Z,56.33
2018-12-31T00:16:37.408Z,62.40
2018-12-31T00:19:06.724Z,63.77
2018-12-31T00:21:35.996Z,50.97
2018-12-31T00:24:05.183Z,51.23
2018-12-31T00:26:34.493Z,49.97
2018-12-31T00:29:03.689Z,56.93
2018-12-31T00:31:32.936Z,46.03
2018-12-31T00:34:02.127Z,61.13
2018-12-31T00:36:31.347Z,55.80
2018-12-31T00:39:00.570Z,60.73
2018-12-31T00:41:29.796Z,55.03
2018-12-31T00:43:59.074Z,62.93
2018-12-31T00:46:28.296Z,63.43
2018-12-31T00:48:57.512Z,62.23
2018-12-31T00:51:26.769Z,61.00
2018-12-31T00:53:55.984Z,56.03
2018-12-31T00:56:25.211Z,58.63
2018-12-31T00:58:54.523Z,50.10
2018-12-31T01:01:23.765Z,53.23
2018-12-31T01:03:52.976Z,50.63
2018-12-31T01:06:22.204Z,69.87
2018-12-31T01:08:51.410Z,59.67
2018-12-31T01:11:20.760Z,62.50
2018-12-31T01:13:49.976Z,57.60
2018-12-31T01:16:19.209Z,58.43
2018-12-31T01:18:48.438Z,69.67
2018-12-31T01:21:17.668Z,61.37
2018-12-31T01:23:46.888Z,54.07
2018-12-31T01:26:16.072Z,71.00
2018-12-31T01:28:45.300Z,60.53
2018-12-31T01:31:14.516Z,56.40
2018-12-31T01:33:43.751Z,69.40
2018-12-31T01:36:12.948Z,74.53
2018-12-31T01:38:42.153Z,68.47
2018-12-31T01:41:11.376Z,67.17
2018-12-31T01:43:40.594Z,77.13
2018-12-31T01:46:09.840Z,70.80
2018-12-31T01:48:39.040Z,72.63
2018-12-31T01:51:11.421Z,69.47
2018-12-31T01:53:39.170Z,69.00
2018-12-31T01:56:08.415Z,69.97
2018-12-31T01:58:37.609Z,73.33
2018-12-31T02:01:06.893Z,75.83
2018-12-31T02:03:36.362Z,80.70
2018-12-31T02:06:05.644Z,53.20
2018-12-31T02:08:34.889Z,72.70
2018-12-31T02:11:04.085Z,71.87
2018-12-31T02:13:33.318Z,71.27
2018-12-31T02:16:02.652Z,75.30
2018-12-31T02:18:31.868Z,75.67
2018-12-31T02:21:01.086Z,75.90
2018-12-31T02:23:30.349Z,83.77
2018-12-31T02:25:59.575Z,82.07
2018-12-31T02:28:28.780Z,76.67
2018-12-31T02:30:59.782Z,82.33
2018-12-31T02:33:29.006Z,98.80
2018-12-31T02:35:58.242Z,96.73
2018-12-31T02:38:27.472Z,94.53
2018-12-31T02:40:56.700Z,80.43
2018-12-31T02:43:25.901Z,72.10
2018-12-31T02:45:55.236Z,76.50
2018-12-31T02:48:24.477Z,66.83
2018-12-31T02:50:53.699Z,78.17
2018-12-31T02:53:22.930Z,75.93
2018-12-31T02:55:52.178Z,67.27
2018-12-31T02:58:21.369Z,72.63
2018-12-31T03:00:50.602Z,54.37
2018-12-31T03:03:19.848Z,74.90
2018-12-31T03:05:49.108Z,66.70
2018-12-31T03:08:18.405Z,70.63
2018-12-31T03:10:47.626Z,55.67
2018-12-31T03:13:16.880Z,68.10
2018-12-31T03:15:46.216Z,63.10
2018-12-31T03:18:15.449Z,80.37
2018-12-31T03:20:44.668Z,59.23
2018-12-31T03:23:13.924Z,59.50
2018-12-31T03:25:43.154Z,95.17
2018-12-31T03:28:12.424Z,57.80
2018-12-31T03:30:41.582Z,57.80
2018-12-31T03:33:10.807Z,91.00
2018-12-31T03:35:40.049Z,75.27
2018-12-31T03:38:09.275Z,106.97
2018-12-31T03:40:38.489Z,73.63
2018-12-31T03:43:07.720Z,95.73
2018-12-31T03:45:36.917Z,86.93
2018-12-31T03:48:06.153Z,85.00
2018-12-31T03:50:35.350Z,99.63
2018-12-31T03:53:04.672Z,175.07
2018-12-31T03:55:33.969Z,194.70
2018-12-31T03:58:03.320Z,149.30
2018-12-31T04:00:32.555Z,210.87
2018-12-31T04:03:01.913Z,161.17
2018-12-31T04:05:31.237Z,162.47
2018-12-31T04:08:00.514Z,199.57
2018-12-31T04:10:29.752Z,189.87
2018-12-31T04:12:59.000Z,152.83
2018-12-31T04:15:28.244Z,168.07
2018-12-31T04:17:57.509Z,157.73
2018-12-31T04:20:26.751Z,133.47
2018-12-31T04:22:55.997Z,145.10
2018-12-31T04:25:25.224Z,201.37
2018-12-31T04:27:54.466Z,209.73
2018-12-31T04:30:23.770Z,164.30
2018-12-31T04:32:53.117Z,171.90
2018-12-31T04:35:22.401Z,178.23
2018-12-31T04:37:51.605Z,196.97
2018-12-31T04:40:20.835Z,195.93
2018-12-31T04:42:50.091Z,205.33
2018-12-31T04:45:19.313Z,202.83
2018-12-31T04:47:48.553Z,197.87
2018-12-31T04:50:17.805Z,186.53
2018-12-31T04:52:47.102Z,170.57
2018-12-31T04:55:16.349Z,204.93
2018-12-31T04:57:45.578Z,193.67
2018-12-31T05:00:14.804Z,192.57
2018-12-31T05:02:44.069Z,136.30
2018-12-31T05:05:13.329Z,152.17
2018-12-31T05:07:42.622Z,157.80
2018-12-31T05:10:11.872Z,137.17
2018-12-31T05:12:41.095Z,158.20
2018-12-31T05:15:10.345Z,127.40
2018-12-31T05:17:39.623Z,144.30
2018-12-31T05:20:08.861Z,138.67
2018-12-31T05:22:38.111Z,169.43
2018-12-31T05:25:07.424Z,128.90
2018-12-31T05:27:36.662Z,144.77
2018-12-31T05:30:05.893Z,138.23
2018-12-31T05:32:35.141Z,135.27
2018-12-31T05:35:04.360Z,139.40
2018-12-31T05:37:33.623Z,136.17
2018-12-31T05:40:02.822Z,124.90
2018-12-31T05:42:32.072Z,111.90
2018-12-31T05:45:01.314Z,123.70
2018-12-31T05:47:30.565Z,113.00
2018-12-31T05:49:59.814Z,127.40
2018-12-31T05:52:29.040Z,116.43
2018-12-31T05:54:58.299Z,124.60
2018-12-31T05:57:27.529Z,118.03
2018-12-31T05:59:56.781Z,105.87
2018-12-31T06:02:25.993Z,109.17
2018-12-31T06:04:55.505Z,119.40
2018-12-31T06:07:24.721Z,105.27
2018-12-31T06:09:53.950Z,93.53
2018-12-31T06:12:23.270Z,107.67
2018-12-31T06:14:52.735Z,111.80
2018-12-31T06:17:21.969Z,109.40
2018-12-31T06:19:51.210Z,114.10
2018-12-31T06:22:20.440Z,100.67
2018-12-31T06:24:49.674Z,121.43
2018-12-31T06:27:18.937Z,110.33
2018-12-31T06:29:48.150Z,116.13
2018-12-31T06:32:17.409Z,124.80
2018-12-31T06:34:46.601Z,103.47
2018-12-31T06:37:15.872Z,122.13
2018-12-31T06:39:45.161Z,122.77
2018-12-31T06:42:14.421Z,111.10
2018-12-31T06:44:43.669Z,125.77
2018-12-31T06:47:12.927Z,119.13
2018-12-31T06:49:42.137Z,117.37
2018-12-31T06:52:11.389Z,119.90
2018-12-31T06:54:40.617Z,113.33
2018-12-31T06:57:09.871Z,114.13
2018-12-31T06:59:39.097Z,111.53
2018-12-31T07:02:08.347Z,115.40
2018-12-31T07:04:37.551Z,124.57
2018-12-31T07:07:06.796Z,141.30
2018-12-31T07:09:36.029Z,124.63
2018-12-31T07:12:05.286Z,119.07
2018-12-31T07:14:34.516Z,104.37
2018-12-31T07:17:03.798Z,105.90
2018-12-31T07:19:33.106Z,113.73
2018-12-31T07:22:02.336Z,124.23
2018-12-31T07:24:31.607Z,111.87
2018-12-31T07:27:00.864Z,116.67
2018-12-31T07:29:30.123Z,105.30
2018-12-31T07:31:59.454Z,120.83
2018-12-31T07:34:28.683Z,122.03
2018-12-31T07:36:58.037Z,115.40
2018-12-31T07:39:27.335Z,120.37
2018-12-31T07:41:56.608Z,126.57
2018-12-31T07:44:25.920Z,113.17
2018-12-31T07:46:55.149Z,110.27
2018-12-31T07:49:24.428Z,120.83
2018-12-31T07:51:53.660Z,125.17
2018-12-31T07:54:22.880Z,129.23
2018-12-31T07:56:52.126Z,114.43
2018-12-31T07:59:21.453Z,113.60
2018-12-31T08:01:50.762Z,110.67
2018-12-31T08:04:19.980Z,115.00
2018-12-31T08:06:49.232Z,125.77
2018-12-31T08:09:18.438Z,118.53
2018-12-31T08:11:47.680Z,131.73
2018-12-31T08:14:16.910Z,116.53
2018-12-31T08:16:46.191Z,106.97
2018-12-31T08:19:15.433Z,101.50
2018-12-31T08:21:44.692Z,123.97
2018-12-31T08:24:14.764Z,108.97
2018-12-31T08:26:44.037Z,125.50
2018-12-31T08:29:13.355Z,117.33
2018-12-31T08:31:42.571Z,142.37
2018-12-31T08:34:11.814Z,132.00
2018-12-31T08:36:41.058Z,146.27
2018-12-31T08:39:10.304Z,125.57
2018-12-31T08:41:39.557Z,112.63
2018-12-31T08:44:08.907Z,106.43
2018-12-31T08:46:38.113Z,112.23
2018-12-31T08:49:07.361Z,127.00
2018-12-31T08:51:36.599Z,139.70
2018-12-31T08:54:05.955Z,106.33
2018-12-31T08:56:35.160Z,113.83
2018-12-31T08:59:04.513Z,128.70
2018-12-31T09:01:33.724Z,97.80
2018-12-31T09:04:03.024Z,108.17
2018-12-31T09:06:32.273Z,105.70
2018-12-31T09:09:01.529Z,113.20
2018-12-31T09:11:30.789Z,90.13
2018-12-31T09:14:00.013Z,103.47
2018-12-31T09:16:29.412Z,88.80
2018-12-31T09:18:58.717Z,91.60
2018-12-31T09:21:27.968Z,82.87
2018-12-31T09:23:57.208Z,93.47
2018-12-31T09:26:26.508Z,73.17
2018-12-31T09:28:55.723Z,76.20
2018-12-31T09:31:24.988Z,97.37
2018-12-31T09:33:54.209Z,74.20
2018-12-31T09:36:23.453Z,71.67
2018-12-31T09:38:52.699Z,72.77
2018-12-31T09:41:21.920Z,83.67
2018-12-31T09:43:51.161Z,81.40
2018-12-31T09:46:20.399Z,73.90
2018-12-31T09:48:49.637Z,74.43
2018-12-31T09:51:18.854Z,57.53
2018-12-31T09:53:48.105Z,59.63
2018-12-31T09:56:17.312Z,60.03
2018-12-31T09:58:46.544Z,68.90
2018-12-31T10:01:15.791Z,67.63
2018-12-31T10:03:45.034Z,64.20
2018-12-31T10:06:14.267Z,73.87
2018-12-31T10:08:49.234Z,65.67
2018-12-31T10:11:14.381Z,62.83
2018-12-31T10:13:43.703Z,56.03
2018-12-31T10:16:12.952Z,51.90
2018-12-31T10:18:42.206Z,57.97
2018-12-31T10:21:11.449Z,62.33
2018-12-31T10:23:40.673Z,46.93
2018-12-31T10:26:09.933Z,61.20
2018-12-31T10:28:39.252Z,38.53
2018-12-31T10:31:08.563Z,43.73
2018-12-31T10:33:37.779Z,52.13
2018-12-31T10:36:07.118Z,44.13
2018-12-31T10:38:36.378Z,37.27
2018-12-31T10:41:05.660Z,38.70
2018-12-31T10:43:34.888Z,31.63
2018-12-31T10:46:04.113Z,29.40
2018-12-31T10:48:33.377Z,21.27
2018-12-31T10:51:02.714Z,22.27
2018-12-31T10:53:31.947Z,19.60
2018-12-31T10:56:01.291Z,17.93
2018-12-31T10:58:30.558Z,19.30
2018-12-31T11:00:59.773Z,17.53
2018-12-31T11:03:29.065Z,15.63
2018-12-31T11:05:58.379Z,16.90
2018-12-31T11:08:27.641Z,17.47
2018-12-31T11:10:56.872Z,17.17
2018-12-31T11:13:26.149Z,14.03
2018-12-31T11:15:55.396Z,17.83
2018-12-31T11:18:24.644Z,16.77
2018-12-31T11:20:53.856Z,15.27
2018-12-31T11:23:23.104Z,19.93
2018-12-31T11:25:52.317Z,19.40
2018-12-31T11:28:21.552Z,16.60
2018-12-31T11:30:51.710Z,16.97
2018-12-31T11:33:21.008Z,15.80
2018-12-31T11:35:50.365Z,18.30
2018-12-31T11:38:19.595Z,16.37
2018-12-31T11:40:48.848Z,18.00
2018-12-31T11:43:18.064Z,21.00
2018-12-31T11:45:47.316Z,19.03
2018-12-31T11:48:16.560Z,20.00
2018-12-31T11:50:45.813Z,22.17
2018-12-31T11:53:15.068Z,20.37
2018-12-31T11:55:44.392Z,19.57
2018-12-31T11:58:13.633Z,19.00
2018-12-31T12:00:42.980Z,20.37
2018-12-31T12:03:12.214Z,26.43
2018-12-31T12:05:41.448Z,22.33
2018-12-31T12:08:10.688Z,22.63
2018-12-31T12:10:40.011Z,22.30
2018-12-31T12:13:09.294Z,23.90
2018-12-31T12:15:38.551Z,22.30
2018-12-31T12:18:07.774Z,27.97
2018-12-31T12:20:37.091Z,22.80
2018-12-31T12:23:06.312Z,22.93
2018-12-31T12:25:35.668Z,26.73
2018-12-31T12:28:05.303Z,31.07
2018-12-31T12:30:34.536Z,28.27
2018-12-31T12:33:03.788Z,29.97
2018-12-31T12:35:32.988Z,27.37
2018-12-31T12:38:02.323Z,40.57
2018-12-31T12:40:31.541Z,28.77
2018-12-31T12:43:00.864Z,32.53
2018-12-31T12:45:30.196Z,26.83
2018-12-31T12:47:59.460Z,31.93
2018-12-31T12:50:28.743Z,26.57
2018-12-31T12:52:58.380Z,29.90
2018-12-31T12:55:27.732Z,29.43
2018-12-31T12:57:56.966Z,32.57
2018-12-31T13:00:26.267Z,34.57
2018-12-31T13:02:55.506Z,33.47
2018-12-31T13:05:24.965Z,35.23
2018-12-31T13:07:54.250Z,27.40
2018-12-31T13:10:23.437Z,29.90
2018-12-31T13:12:52.669Z,34.60
2018-12-31T13:15:21.880Z,27.73
2018-12-31T13:17:51.244Z,26.93
2018-12-31T13:20:20.587Z,25.50
2018-12-31T13:22:49.946Z,23.97
2018-12-31T13:25:19.174Z,27.73
2018-12-31T13:27:48.528Z,30.33
2018-12-31T13:30:17.728Z,26.10
2018-12-31T13:32:46.948Z,21.67
2018-12-31T13:35:16.191Z,22.60
2018-12-31T13:37:45.482Z,26.97
2018-12-31T13:40:14.759Z,26.37
2018-12-31T13:42:43.985Z,26.40
2018-12-31T13:45:13.345Z,24.83
2018-12-31T13:47:42.547Z,25.60
2018-12-31T13:50:11.807Z,28.23
2018-12-31T13:52:41.138Z,32.87
2018-12-31T13:55:10.370Z,30.23
2018-12-31T13:57:39.585Z,26.83
2018-12-31T14:00:09.825Z,24.07
2018-12-31T14:02:39.075Z,24.30
2018-12-31T14:05:08.693Z,28.47
2018-12-31T14:07:37.905Z,32.23
2018-12-31T14:10:07.253Z,30.17
2018-12-31T14:12:36.567Z,25.73
2018-12-31T14:15:08.315Z,31.90
2018-12-31T14:17:37.562Z,27.03
2018-12-31T14:20:06.909Z,30.23
2018-12-31T14:22:36.209Z,26.13
2018-12-31T14:25:05.577Z,29.23
2018-12-31T14:27:34.909Z,24.43
2018-12-31T14:30:04.737Z,28.30
2018-12-31T14:32:33.975Z,29.70
2018-12-31T14:35:03.206Z,26.50
2018-12-31T14:37:32.421Z,22.20
2018-12-31T14:40:01.690Z,29.87
2018-12-31T14:42:30.940Z,26.83
2018-12-31T14:45:00.172Z,23.73
2018-12-31T14:47:29.402Z,27.60
2018-12-31T14:49:58.649Z,30.27
2018-12-31T14:52:27.998Z,29.53
2018-12-31T14:54:57.269Z,28.13
2018-12-31T14:57:26.545Z,30.17
2018-12-31T14:59:55.881Z,27.87
2018-12-31T15:02:25.184Z,27.97
2018-12-31T15:04:54.425Z,31.67
2018-12-31T15:07:23.892Z,37.03
2018-12-31T15:09:53.352Z,29.20
2018-12-31T15:12:22.632Z,31.43
2018-12-31T15:14:52.343Z,33.73
2018-12-31T15:17:22.031Z,32.63
2018-12-31T15:19:51.339Z,37.00
2018-12-31T15:22:20.566Z,37.33
2018-12-31T15:24:49.818Z,39.47
2018-12-31T15:27:19.123Z,35.33
2018-12-31T15:29:48.636Z,32.80
2018-12-31T15:32:17.874Z,35.80
2018-12-31T15:34:47.125Z,37.73
2018-12-31T15:37:16.316Z,35.90
2018-12-31T15:39:45.652Z,55.43
2018-12-31T15:42:15.168Z,83.90
2018-12-31T15:44:44.413Z,77.53
2018-12-31T15:47:13.691Z,51.07
2018-12-31T15:49:42.961Z,41.63
2018-12-31T15:52:12.152Z,41.33
2018-12-31T15:54:41.725Z,34.13
2018-12-31T15:57:11.058Z,38.07
2018-12-31T15:59:40.321Z,33.33
2018-12-31T16:02:09.565Z,27.90
2018-12-31T16:04:38.802Z,36.33
2018-12-31T16:07:08.221Z,32.60
2018-12-31T16:09:37.494Z,35.97
2018-12-31T16:12:06.712Z,32.00
2018-12-31T16:14:36.016Z,30.73
2018-12-31T16:17:05.357Z,29.00
2018-12-31T16:19:34.600Z,26.13
2018-12-31T16:22:03.833Z,31.40
2018-12-31T16:24:33.077Z,22.03
2018-12-31T16:27:02.353Z,18.33
2018-12-31T16:29:31.569Z,25.03
2018-12-31T16:32:00.821Z,27.27
2018-12-31T16:34:30.041Z,27.10
2018-12-31T16:36:59.294Z,24.17
2018-12-31T16:39:28.588Z,21.60
2018-12-31T16:41:57.869Z,36.53
2018-12-31T16:44:27.157Z,24.53
2018-12-31T16:46:56.494Z,33.20
2018-12-31T16:49:25.743Z,33.07
2018-12-31T16:52:02.516Z,34.13
2018-12-31T16:54:25.897Z,27.90
2018-12-31T16:56:55.138Z,30.43
2018-12-31T16:59:24.357Z,80.03
2018-12-31T17:01:53.594Z,67.07
2018-12-31T17:04:22.921Z,201.67
2018-12-31T17:06:52.154Z,39.60
2018-12-31T17:09:21.419Z,29.93
2018-12-31T17:11:50.737Z,30.30
2018-12-31T17:14:19.978Z,26.83
2018-12-31T17:16:49.248Z,39.83
2018-12-31T17:19:18.498Z,31.30
2018-12-31T17:21:47.752Z,23.40
2018-12-31T17:24:16.967Z,28.27
2018-12-31T17:26:46.194Z,23.13
2018-12-31T17:29:15.412Z,20.50
2018-12-31T17:31:44.723Z,21.67
2018-12-31T17:34:14.041Z,26.40
2018-12-31T17:36:43.239Z,25.87
2018-12-31T17:39:12.476Z,22.30
2018-12-31T17:41:41.799Z,22.07
2018-12-31T17:44:12.017Z,23.37
2018-12-31T17:46:41.451Z,25.43
2018-12-31T17:49:10.697Z,24.97
2018-12-31T17:51:39.929Z,21.77
2018-12-31T17:54:09.173Z,20.70
2018-12-31T17:56:38.410Z,16.90
2018-12-31T17:59:07.750Z,17.67
2018-12-31T18:01:36.961Z,15.37
2018-12-31T18:04:06.177Z,18.43
2018-12-31T18:06:35.460Z,17.17
2018-12-31T18:09:07.089Z,18.07
2018-12-31T18:11:36.321Z,15.13
2018-12-31T18:14:05.550Z,18.97
2018-12-31T18:16:34.786Z,23.40
2018-12-31T18:19:04.149Z,15.60
2018-12-31T18:21:33.390Z,21.97
2018-12-31T18:24:02.608Z,23.00
2018-12-31T18:26:31.831Z,19.37
2018-12-31T18:29:01.065Z,19.50
2018-12-31T18:31:30.349Z,19.63
2018-12-31T18:33:59.577Z,25.20
2018-12-31T18:36:28.831Z,23.67
2018-12-31T18:38:58.573Z,16.33
2018-12-31T18:41:27.832Z,15.60
2018-12-31T18:43:57.066Z,24.57
2018-12-31T18:46:26.348Z,18.23
2018-12-31T18:48:55.669Z,20.13
2018-12-31T18:51:25.256Z,24.30
2018-12-31T18:53:54.517Z,19.53
2018-12-31T18:56:23.738Z,30.70
2018-12-31T18:58:52.980Z,28.60
2018-12-31T19:01:22.298Z,22.27
2018-12-31T19:03:51.516Z,22.27
2018-12-31T19:06:20.741Z,24.03
2018-12-31T19:08:50.080Z,18.43
2018-12-31T19:11:19.293Z,18.50
2018-12-31T19:13:48.533Z,17.83
2018-12-31T19:16:17.814Z,25.17
2018-12-31T19:18:47.065Z,24.00
2018-12-31T19:21:16.285Z,15.83
2018-12-31T19:23:45.532Z,13.53
2018-12-31T19:26:14.708Z,11.93
2018-12-31T19:28:43.950Z,14.23
2018-12-31T19:31:13.246Z,13.80
2018-12-31T19:33:42.477Z,17.00
2018-12-31T19:36:11.781Z,17.63
2018-12-31T19:38:40.997Z,37.13
2018-12-31T19:41:10.269Z,20.03
2018-12-31T19:43:39.481Z,13.40
2018-12-31T19:46:08.742Z,34.23
2018-12-31T19:48:37.949Z,18.63
2018-12-31T19:51:07.189Z,21.33
2018-12-31T19:53:36.469Z,20.20
2018-12-31T19:56:05.710Z,16.63
2018-12-31T19:58:34.949Z,20.50
2018-12-31T20:01:04.212Z,27.30
2018-12-31T20:03:33.813Z,40.23
2018-12-31T20:06:03.072Z,26.77
2018-12-31T20:08:32.313Z,22.77
2018-12-31T20:11:01.546Z,30.03
2018-12-31T20:13:30.811Z,34.40
2018-12-31T20:16:00.077Z,26.93
2018-12-31T20:18:29.316Z,35.50
2018-12-31T20:20:58.546Z,29.33
2018-12-31T20:23:27.826Z,30.23
2018-12-31T20:25:57.049Z,31.40
2018-12-31T20:28:26.597Z,34.80
2018-12-31T20:30:55.869Z,41.60
2018-12-31T20:33:25.152Z,44.43
2018-12-31T20:35:54.450Z,41.80
2018-12-31T20:38:23.710Z,36.83
2018-12-31T20:40:52.976Z,44.57
2018-12-31T20:43:22.230Z,32.70
2018-12-31T20:45:51.594Z,32.27
2018-12-31T20:48:20.849Z,38.53
2018-12-31T20:50:50.070Z,37.23
2018-12-31T20:53:19.304Z,32.60
2018-12-31T20:55:48.825Z,36.20
2018-12-31T20:58:18.041Z,30.80
2018-12-31T21:00:47.272Z,36.63
2018-12-31T21:03:16.501Z,29.67
2018-12-31T21:05:45.833Z,25.80
2018-12-31T21:08:15.360Z,32.83
2018-12-31T21:10:44.599Z,49.40
2018-12-31T21:13:13.864Z,31.07
2018-12-31T21:15:43.066Z,31.17
2018-12-31T21:18:12.377Z,22.20
2018-12-31T21:20:41.921Z,19.77
2018-12-31T21:23:11.166Z,18.03
2018-12-31T21:25:40.409Z,20.07
2018-12-31T21:28:09.661Z,23.60
2018-12-31T21:30:38.889Z,23.43
2018-12-31T21:33:08.444Z,20.93
2018-12-31T21:35:37.693Z,16.07
2018-12-31T21:38:06.940Z,19.60
2018-12-31T21:40:36.133Z,15.23
2018-12-31T21:43:05.376Z,20.83
2018-12-31T21:45:34.694Z,20.43
2018-12-31T21:48:03.897Z,15.10
2018-12-31T21:50:33.120Z,17.20
2018-12-31T21:53:02.359Z,16.70
2018-12-31T21:55:31.686Z,19.03
2018-12-31T21:58:00.893Z,18.03
2018-12-31T22:00:30.131Z,24.53
2018-12-31T22:02:59.370Z,19.13
2018-12-31T22:05:28.636Z,20.63
2018-12-31T22:07:57.993Z,17.20
2018-12-31T22:10:27.213Z,19.90
2018-12-31T22:12:56.521Z,17.13
2018-12-31T22:15:25.728Z,20.90
2018-12-31T22:17:55.019Z,21.47
2018-12-31T22:20:24.290Z,22.07
2018-12-31T22:22:53.503Z,23.43
2018-12-31T22:25:22.761Z,22.63
2018-12-31T22:27:52.001Z,24.60
2018-12-31T22:30:21.220Z,25.00
2018-12-31T22:32:50.463Z,26.23
2018-12-31T22:35:19.753Z,29.43
2018-12-31T22:37:49.199Z,23.10
2018-12-31T22:40:18.573Z,27.17
2018-12-31T22:42:47.700Z,27.57
2018-12-31T22:45:16.968Z,35.10
2018-12-31T22:47:46.209Z,35.43
2018-12-31T22:50:15.768Z,33.97
2018-12-31T22:52:45.018Z,36.83
2018-12-31T22:55:14.310Z,36.50
2018-12-31T22:57:43.624Z,45.33
2018-12-31T23:00:12.974Z,70.57
2018-12-31T23:02:42.287Z,157.93
2018-12-31T23:05:13.244Z,179.17
2018-12-31T23:07:42.818Z,255.37
2018-12-31T23:10:12.075Z,346.37
2018-12-31T23:12:41.282Z,390.27
2018-12-31T23:15:14.273Z,204.47
2018-12-31T23:17:43.524Z,243.37
2018-12-31T23:20:13.138Z,257.10
2018-12-31T23:22:42.336Z,321.37
2018-12-31T23:25:11.897Z,149.13
2018-12-31T23:27:41.129Z,167.53
2018-12-31T23:30:10.690Z,191.33
2018-12-31T23:32:40.036Z,152.27
2018-12-31T23:35:09.656Z,130.33
2018-12-31T23:37:41.500Z,91.47
2018-12-31T23:40:10.796Z,105.50
2018-12-31T23:42:40.060Z,118.27
2018-12-31T23:45:10.866Z,78.20
2018-12-31T23:47:40.135Z,70.57
2018-12-31T23:50:10.640Z,44.30
2018-12-31T23:52:39.849Z,52.63
2018-12-31T23:55:09.097Z,36.37
2018-12-31T23:57:38.325Z,36.80
